Terminal Aerodrome Forecast
Issued by NWS Wichita, KS

Home | Current Version | Previous Version | Text Only | Print | Product List | Glossary Off
Versions: 1 2 3 4 5 6 7 8 9 10 11 12 13 14 15 16 17 18 19 20 21 22 23 24

098
FTUS43 KICT 162338
TAFICT
TAF
KICT 162338Z 1700/1724 16011KT P6SM SCT150
     FM170200 02010KT P6SM VCTS SCT050CB BKN080
     FM170600 02011KT P6SM VCSH SCT020 BKN070
     FM171200 03009KT P6SM OVC020
     FM171600 04007KT P6SM BKN030=

USA.gov is the U.S. government's official web portal to all federal, state and local government web resources and services.